Time;durP1;ratioP1;P1;durP2;ratioP2;P2;SDS_P1;SDS_P2;PMS_P1;PMS_P2;Temp;Humidity;BMP_temperature;BMP_pressure;BME280_temperature;BME280_humidity;BME280_pressure;Samples;Min_cycle;Max_cycle;Signal;HPM_P1;HPM_P2
2021/03/20 00:02:00;;;;;;;1.60;0.20;;;2.70;99.90;;;;;;5113994;28;20187;-62
2021/03/20 00:04:25;;;;;;;1.60;0.20;;;2.70;99.90;;;;;;5111328;28;20207;-63
2021/03/20 00:06:54;;;;;;;1.60;0.30;;;2.70;99.90;;;;;;5118434;27;20179;-62
2021/03/20 00:09:22;;;;;;;1.60;0.20;;;2.60;99.90;;;;;;5111838;27;20203;-62
2021/03/20 00:11:49;;;;;;;1.70;0.50;;;2.50;99.90;;;;;;5121735;27;20229;-67
2021/03/20 00:14:20;;;;;;;1.60;0.20;;;2.50;99.90;;;;;;5136111;28;20258;-66
2021/03/20 00:16:46;;;;;;;1.60;0.20;;;2.40;99.90;;;;;;5132414;27;20553;-62
2021/03/20 00:19:12;;;;;;;1.60;0.20;;;2.40;99.90;;;;;;5118206;27;20194;-62
2021/03/20 00:21:38;;;;;;;1.60;0.20;;;2.40;99.90;;;;;;5129881;27;20197;-64
2021/03/20 00:24:04;;;;;;;1.60;0.20;;;2.50;99.90;;;;;;5117728;28;20230;-62
2021/03/20 00:26:30;;;;;;;1.60;0.20;;;2.40;99.90;;;;;;5116183;28;20209;-62
2021/03/20 00:28:56;;;;;;;1.60;0.20;;;2.30;99.90;;;;;;5116658;28;20183;-62
2021/03/20 00:31:22;;;;;;;1.60;0.20;;;2.20;99.90;;;;;;5114699;27;20435;-63
2021/03/20 00:33:47;;;;;;;1.70;0.40;;;2.20;99.90;;;;;;5109881;28;20584;-62
2021/03/20 00:36:15;;;;;;;2.17;1.53;;;2.10;99.90;;;;;;5115789;28;20206;-61
2021/03/20 00:38:41;;;;;;;1.70;0.70;;;2.10;99.90;;;;;;5112661;28;20198;-62
2021/03/20 00:41:08;;;;;;;2.80;1.65;;;2.00;99.90;;;;;;5117503;27;20229;-62
2021/03/20 00:43:34;;;;;;;1.60;0.20;;;2.00;99.90;;;;;;5111076;28;20226;-62
2021/03/20 00:46:00;;;;;;;1.60;0.20;;;2.00;99.90;;;;;;5108797;28;20214;-62
2021/03/20 00:48:29;;;;;;;2.10;1.03;;;2.00;99.90;;;;;;5110724;28;20444;-62
2021/03/20 00:50:56;;;;;;;1.60;0.20;;;2.10;99.90;;;;;;5111702;27;20469;-62
2021/03/20 00:53:22;;;;;;;1.60;0.20;;;2.10;99.90;;;;;;5115025;27;20612;-62
2021/03/20 00:55:48;;;;;;;1.70;0.40;;;2.20;99.90;;;;;;5111738;28;20183;-62
2021/03/20 00:58:25;;;;;;;1.65;0.28;;;2.10;99.90;;;;;;5105370;28;20195;-62
2021/03/20 01:00:54;;;;;;;1.60;0.20;;;2.00;99.90;;;;;;5113626;27;20202;-62
2021/03/20 01:03:19;;;;;;;2.20;0.47;;;2.00;99.90;;;;;;5112733;28;20562;-62
2021/03/20 01:05:45;;;;;;;1.60;0.20;;;2.00;99.90;;;;;;5109024;28;20182;-62
2021/03/20 01:08:11;;;;;;;1.60;0.20;;;2.00;99.90;;;;;;5113346;28;20539;-62
2021/03/20 01:10:37;;;;;;;1.60;0.20;;;2.00;99.90;;;;;;5115875;27;20483;-62
2021/03/20 01:13:03;;;;;;;1.60;0.20;;;1.90;99.90;;;;;;5109810;28;20592;-62
2021/03/20 01:15:29;;;;;;;1.60;0.20;;;1.90;99.90;;;;;;5112066;28;20188;-62
2021/03/20 01:17:54;;;;;;;1.70;0.47;;;1.90;99.90;;;;;;5113220;28;20205;-64
2021/03/20 01:20:21;;;;;;;1.60;0.30;;;1.90;99.90;;;;;;5109416;28;20682;-62
2021/03/20 01:22:46;;;;;;;1.60;0.20;;;2.00;99.90;;;;;;5113042;28;20207;-62
2021/03/20 01:25:12;;;;;;;1.60;0.20;;;2.00;99.90;;;;;;5111569;27;20183;-61
2021/03/20 01:27:38;;;;;;;1.60;0.20;;;2.10;99.90;;;;;;5113247;28;20265;-61
2021/03/20 01:30:10;;;;;;;1.60;0.20;;;2.10;99.90;;;;;;5112365;28;20203;-61
2021/03/20 01:32:35;;;;;;;1.60;0.20;;;2.10;99.90;;;;;;5111305;28;20260;-62
2021/03/20 01:35:02;;;;;;;1.90;0.53;;;2.10;99.90;;;;;;5110908;28;20175;-62
2021/03/20 01:37:28;;;;;;;1.60;0.20;;;2.10;99.90;;;;;;5113052;28;20187;-62
2021/03/20 01:39:53;;;;;;;1.60;0.20;;;2.20;99.90;;;;;;5108939;27;20203;-62
2021/03/20 01:42:19;;;;;;;1.60;0.20;;;2.20;99.90;;;;;;5109970;27;20243;-62
2021/03/20 01:45:05;;;;;;;1.60;0.20;;;2.20;99.90;;;;;;5109831;28;20175;-62
2021/03/20 01:47:31;;;;;;;1.60;0.20;;;2.20;99.90;;;;;;5111889;28;20282;-63
2021/03/20 01:49:58;;;;;;;3.80;1.30;;;2.10;99.90;;;;;;5111542;28;20239;-63
2021/03/20 01:52:32;;;;;;;1.60;0.20;;;2.10;99.90;;;;;;5114400;28;20176;-63
2021/03/20 01:55:15;;;;;;;1.60;0.20;;;2.20;99.90;;;;;;5109519;28;20182;-62
2021/03/20 01:57:50;;;;;;;1.60;0.20;;;2.10;99.90;;;;;;5108267;27;20276;-62
2021/03/20 02:00:35;;;;;;;1.60;0.20;;;2.20;99.90;;;;;;5110515;28;20214;-62
2021/03/20 02:03:17;;;;;;;1.60;0.20;;;2.20;99.90;;;;;;5105145;28;20213;-62
2021/03/20 02:05:44;;;;;;;1.60;0.20;;;2.30;99.90;;;;;;5106957;28;20221;-62
2021/03/20 02:08:12;;;;;;;1.60;0.20;;;2.30;99.90;;;;;;5094464;27;20175;-62
2021/03/20 02:10:40;;;;;;;3.28;2.15;;;2.30;99.90;;;;;;5108386;28;20214;-62
2021/03/20 02:13:08;;;;;;;1.60;0.20;;;2.30;99.90;;;;;;5107106;27;20259;-62
2021/03/20 02:15:43;;;;;;;1.80;0.68;;;2.30;99.90;;;;;;5110386;28;20188;-62
2021/03/20 02:18:26;;;;;;;2.28;0.60;;;2.30;99.90;;;;;;5103974;28;20191;-62
2021/03/20 02:20:54;;;;;;;1.75;0.55;;;2.30;99.90;;;;;;5103657;27;20536;-62
2021/03/20 02:23:47;;;;;;;1.60;0.20;;;2.30;99.90;;;;;;5111407;28;20202;-62
2021/03/20 02:26:41;;;;;;;1.70;0.63;;;2.20;99.90;;;;;;5114071;28;20168;-62
2021/03/20 02:29:25;;;;;;;2.38;0.95;;;2.20;99.90;;;;;;5125838;28;20191;-63
2021/03/20 02:31:56;;;;;;;2.42;0.60;;;2.10;99.90;;;;;;5120310;27;20175;-61
2021/03/20 02:34:38;;;;;;;2.67;1.05;;;2.20;99.90;;;;;;5113074;28;20465;-61
2021/03/20 02:37:10;;;;;;;2.60;0.98;;;2.10;99.90;;;;;;5105589;28;20188;-62
2021/03/20 02:39:48;;;;;;;3.22;1.95;;;2.10;99.90;;;;;;5107363;28;20203;-62
2021/03/20 02:42:25;;;;;;;2.70;1.65;;;2.00;99.90;;;;;;5112265;28;20194;-62
2021/03/20 02:45:28;;;;;;;2.00;0.75;;;2.00;99.90;;;;;;5109151;28;20201;-62
2021/03/20 02:48:23;;;;;;;1.70;0.40;;;2.00;99.90;;;;;;5107758;28;20187;-61
2021/03/20 02:51:21;;;;;;;1.60;0.30;;;2.00;99.90;;;;;;5102361;28;20256;-62
2021/03/20 02:54:04;;;;;;;1.60;0.20;;;2.10;99.90;;;;;;5054788;28;20188;-61
2021/03/20 02:56:39;;;;;;;1.80;0.60;;;2.10;99.90;;;;;;5106734;28;20535;-62
2021/03/20 02:59:10;;;;;;;1.60;0.20;;;2.10;99.90;;;;;;5108786;28;20250;-62
2021/03/20 03:01:38;;;;;;;1.63;0.20;;;2.10;99.90;;;;;;5108033;28;20176;-62
2021/03/20 03:04:05;;;;;;;1.60;0.20;;;2.20;99.90;;;;;;5091159;28;20577;-62
2021/03/20 03:06:43;;;;;;;6.20;1.13;;;2.10;99.90;;;;;;5107163;28;20542;-61
2021/03/20 03:09:15;;;;;;;1.60;0.20;;;2.20;99.90;;;;;;5107507;28;20187;-62
2021/03/20 03:11:49;;;;;;;1.65;0.20;;;2.20;99.90;;;;;;5112350;28;20178;-62
2021/03/20 03:14:38;;;;;;;2.33;1.02;;;2.30;99.90;;;;;;5111519;27;20182;-62
2021/03/20 03:17:04;;;;;;;1.60;0.20;;;2.20;99.90;;;;;;5107329;27;20191;-63
2021/03/20 03:19:36;;;;;;;1.60;0.20;;;2.20;99.90;;;;;;5111560;28;20203;-64
2021/03/20 03:22:06;;;;;;;1.60;0.20;;;2.20;99.90;;;;;;5106737;28;20201;-61
2021/03/20 03:24:33;;;;;;;1.60;0.20;;;2.10;99.90;;;;;;5105451;28;20211;-62
2021/03/20 03:27:05;;;;;;;3.28;1.20;;;2.10;99.90;;;;;;5109687;28;20215;-63
2021/03/20 03:29:34;;;;;;;1.67;0.30;;;2.00;99.90;;;;;;5112765;28;20264;-62
2021/03/20 03:32:14;;;;;;;1.60;0.20;;;2.00;99.90;;;;;;5109510;28;20180;-62
2021/03/20 03:34:43;;;;;;;2.05;0.68;;;2.10;99.90;;;;;;5108096;28;20191;-62
2021/03/20 03:37:13;;;;;;;1.60;0.20;;;2.10;99.90;;;;;;5104560;28;20597;-62
2021/03/20 03:39:48;;;;;;;3.35;2.92;;;2.20;99.90;;;;;;5109108;28;20226;-62
2021/03/20 03:42:15;;;;;;;2.55;0.50;;;2.10;99.90;;;;;;5109326;28;20183;-62
2021/03/20 03:44:43;;;;;;;4.00;1.60;;;2.10;99.90;;;;;;5091992;28;20183;-62
2021/03/20 03:47:10;;;;;;;1.60;0.20;;;1.90;99.90;;;;;;5110134;28;20270;-62
2021/03/20 03:49:36;;;;;;;1.60;0.20;;;2.00;99.90;;;;;;5098269;28;20229;-63
2021/03/20 03:52:04;;;;;;;1.60;0.20;;;1.90;99.90;;;;;;5111363;28;20666;-63
2021/03/20 03:54:30;;;;;;;1.60;0.20;;;1.90;99.90;;;;;;5109068;28;20179;-62
2021/03/20 03:57:14;;;;;;;2.33;0.88;;;2.00;99.90;;;;;;5106775;28;20561;-63
2021/03/20 03:59:59;;;;;;;4.15;1.42;;;1.90;99.90;;;;;;5110770;28;20681;-62
2021/03/20 04:02:46;;;;;;;1.63;0.20;;;1.80;99.90;;;;;;5110013;28;20190;-63
2021/03/20 04:05:28;;;;;;;1.60;0.20;;;1.90;99.90;;;;;;5109306;28;20195;-62
2021/03/20 04:08:05;;;;;;;1.60;0.20;;;1.80;99.90;;;;;;5111990;28;20653;-62
2021/03/20 04:10:40;;;;;;;1.60;0.20;;;1.80;99.90;;;;;;5103899;28;20712;-62
2021/03/20 04:13:53;;;;;;;1.60;0.20;;;1.80;99.90;;;;;;5106616;28;20684;-62
2021/03/20 04:16:30;;;;;;;1.60;0.20;;;1.80;99.90;;;;;;5096227;28;20191;-63
2021/03/20 04:19:08;;;;;;;1.80;0.60;;;1.90;99.90;;;;;;5111751;28;20194;-62
2021/03/20 04:21:58;;;;;;;2.50;1.00;;;1.90;99.90;;;;;;5105847;28;20210;-62
2021/03/20 04:24:40;;;;;;;1.60;0.20;;;1.90;99.90;;;;;;5107261;28;20207;-63
2021/03/20 04:27:15;;;;;;;2.63;0.55;;;1.80;99.90;;;;;;5108476;28;20195;-62
2021/03/20 04:30:10;;;;;;;2.58;1.35;;;1.70;99.90;;;;;;5105530;28;20676;-62
2021/03/20 04:32:56;;;;;;;3.53;1.80;;;1.70;99.90;;;;;;5110719;27;20263;-63
2021/03/20 04:35:31;;;;;;;3.50;1.50;;;1.70;99.90;;;;;;5113665;28;20592;-62
2021/03/20 04:37:59;;;;;;;1.60;0.20;;;1.70;99.90;;;;;;5110590;28;20201;-63
2021/03/20 04:40:54;;;;;;;1.70;0.20;;;1.70;99.90;;;;;;5108181;28;20199;-62
2021/03/20 04:43:24;;;;;;;1.60;0.20;;;1.70;99.90;;;;;;5109189;28;20226;-62
2021/03/20 04:46:01;;;;;;;3.60;0.47;;;1.70;99.90;;;;;;5107255;28;20210;-62
2021/03/20 04:48:33;;;;;;;2.33;0.50;;;1.70;99.90;;;;;;5112023;28;20206;-62
2021/03/20 04:51:07;;;;;;;1.92;0.40;;;1.60;99.90;;;;;;5110450;28;20228;-62
2021/03/20 04:53:33;;;;;;;1.60;0.20;;;1.70;99.90;;;;;;5112933;28;20681;-62
2021/03/20 04:56:08;;;;;;;1.60;0.20;;;1.60;99.90;;;;;;5110447;27;20183;-62
2021/03/20 04:58:59;;;;;;;2.47;1.75;;;1.70;99.90;;;;;;5112458;28;20279;-62
2021/03/20 05:01:37;;;;;;;2.10;0.93;;;1.70;99.90;;;;;;5112887;28;20183;-62
2021/03/20 05:04:09;;;;;;;2.65;0.70;;;1.60;99.90;;;;;;5113953;28;20209;-62
2021/03/20 05:06:36;;;;;;;2.05;0.60;;;1.50;99.90;;;;;;5110241;27;20184;-63
2021/03/20 05:09:06;;;;;;;1.60;0.30;;;1.60;99.90;;;;;;5113223;28;20532;-63
2021/03/20 05:12:00;;;;;;;2.20;0.85;;;1.70;99.90;;;;;;5109395;28;20183;-62
2021/03/20 05:14:40;;;;;;;2.42;0.65;;;1.60;99.90;;;;;;5108170;27;20201;-62
2021/03/20 05:17:17;;;;;;;1.60;0.30;;;1.60;99.90;;;;;;5109721;28;20183;-63
2021/03/20 05:19:44;;;;;;;1.60;0.20;;;1.50;99.90;;;;;;5097171;28;20212;-62
2021/03/20 05:22:16;;;;;;;1.90;0.50;;;1.50;99.90;;;;;;5109716;28;20210;-62
2021/03/20 05:24:41;;;;;;;1.60;0.20;;;1.50;99.90;;;;;;5108634;28;20705;-62
2021/03/20 05:27:10;;;;;;;2.27;0.80;;;1.50;99.90;;;;;;5093806;28;20241;-62
2021/03/20 05:29:35;;;;;;;1.80;0.40;;;1.40;99.90;;;;;;5107600;27;20206;-63
2021/03/20 05:32:04;;;;;;;1.67;0.27;;;1.40;99.90;;;;;;5113755;28;20180;-64
2021/03/20 05:34:35;;;;;;;2.30;0.98;;;1.30;99.90;;;;;;5107825;28;20179;-62
2021/03/20 05:37:00;;;;;;;1.65;0.28;;;1.30;99.90;;;;;;5111141;28;20202;-63
2021/03/20 05:39:26;;;;;;;1.60;0.20;;;1.30;99.90;;;;;;5112809;27;20277;-62
2021/03/20 05:42:02;;;;;;;2.65;0.77;;;1.30;99.90;;;;;;5109921;28;20498;-62
2021/03/20 05:45:05;;;;;;;1.60;0.20;;;1.40;99.90;;;;;;5107103;27;20202;-62
2021/03/20 05:47:54;;;;;;;1.73;0.45;;;1.40;99.90;;;;;;5106755;28;20186;-63
2021/03/20 05:50:39;;;;;;;2.55;1.33;;;1.30;99.90;;;;;;5110914;28;20673;-62
2021/03/20 05:53:11;;;;;;;1.60;0.20;;;1.30;99.90;;;;;;5112351;28;20183;-62
2021/03/20 05:55:48;;;;;;;1.60;0.20;;;1.40;99.90;;;;;;5107846;27;20202;-62
2021/03/20 05:58:41;;;;;;;3.75;0.80;;;1.40;99.90;;;;;;5112082;27;20668;-62
2021/03/20 06:01:19;;;;;;;1.60;0.20;;;1.50;99.90;;;;;;5110274;28;20286;-62
2021/03/20 06:04:01;;;;;;;2.08;0.75;;;1.50;99.90;;;;;;5104961;28;20754;-63
2021/03/20 06:06:59;;;;;;;1.60;0.20;;;1.50;99.90;;;;;;5101853;28;20172;-62
2021/03/20 06:09:50;;;;;;;1.80;0.40;;;1.60;99.90;;;;;;5111086;27;20266;-62
2021/03/20 06:12:40;;;;;;;1.60;0.30;;;1.50;99.90;;;;;;5111967;28;20182;-62
2021/03/20 06:15:36;;;;;;;2.10;0.57;;;1.50;99.90;;;;;;5107846;28;20175;-63
2021/03/20 06:18:20;;;;;;;1.80;0.40;;;1.60;99.90;;;;;;5093364;28;20175;-62
2021/03/20 06:20:51;;;;;;;1.60;0.20;;;1.50;99.90;;;;;;5114500;27;20535;-62
2021/03/20 06:23:44;;;;;;;1.70;0.50;;;1.60;99.90;;;;;;5112282;28;20203;-62
2021/03/20 06:26:36;;;;;;;1.58;0.20;;;1.60;99.90;;;;;;5108866;28;20609;-62
2021/03/20 06:29:20;;;;;;;1.70;0.30;;;1.50;99.90;;;;;;5098692;28;20179;-62
2021/03/20 06:31:47;;;;;;;1.60;0.20;;;1.60;99.90;;;;;;5111173;28;20186;-63
2021/03/20 06:34:20;;;;;;;1.92;0.75;;;1.60;99.90;;;;;;5108347;28;20191;-62
2021/03/20 06:37:00;;;;;;;2.28;0.57;;;1.70;99.90;;;;;;5103257;28;20627;-62
2021/03/20 06:39:37;;;;;;;1.70;0.30;;;1.70;99.90;;;;;;5112146;28;20199;-62
2021/03/20 06:42:22;;;;;;;1.60;0.20;;;1.60;99.90;;;;;;5111823;28;20187;-62
2021/03/20 06:44:53;;;;;;;3.05;0.82;;;1.50;99.90;;;;;;5109781;28;20213;-62
2021/03/20 06:47:26;;;;;;;1.77;0.50;;;1.50;99.90;;;;;;5105362;27;20201;-62
2021/03/20 06:49:54;;;;;;;1.60;0.20;;;1.40;99.90;;;;;;5111139;28;20614;-63
2021/03/20 06:52:21;;;;;;;2.05;0.65;;;1.50;99.90;;;;;;5104269;28;20176;-62
2021/03/20 06:54:54;;;;;;;1.60;0.20;;;1.50;99.90;;;;;;5108187;28;20180;-63
2021/03/20 06:57:20;;;;;;;1.60;0.20;;;1.50;99.90;;;;;;5111689;28;20183;-63
2021/03/20 06:59:45;;;;;;;2.03;0.40;;;1.50;99.90;;;;;;5108791;27;20603;-62
2021/03/20 07:02:43;;;;;;;1.60;0.20;;;1.50;99.90;;;;;;5109725;28;20183;-63
2021/03/20 07:05:17;;;;;;;1.58;0.20;;;1.50;99.90;;;;;;5113955;28;20179;-62
2021/03/20 07:07:43;;;;;;;1.77;0.38;;;1.50;99.90;;;;;;5112343;28;20198;-62
2021/03/20 07:10:35;;;;;;;1.60;0.30;;;1.50;99.90;;;;;;5106957;28;20199;-62
2021/03/20 07:13:09;;;;;;;1.60;0.20;;;1.40;99.90;;;;;;5110596;28;20191;-62
2021/03/20 07:15:36;;;;;;;1.60;0.30;;;1.50;99.90;;;;;;5110879;28;20589;-62
2021/03/20 07:18:36;;;;;;;1.80;0.50;;;1.50;99.90;;;;;;5105604;28;20232;-63
2021/03/20 07:21:17;;;;;;;1.60;0.20;;;1.50;99.90;;;;;;5107262;28;20198;-62
2021/03/20 07:24:11;;;;;;;1.60;0.20;;;1.50;99.90;;;;;;5108298;27;20241;-63
2021/03/20 07:26:58;;;;;;;1.70;0.40;;;1.50;99.90;;;;;;5061044;28;20813;-62
2021/03/20 07:29:52;;;;;;;1.58;0.20;;;1.50;99.90;;;;;;5111932;28;20206;-62
2021/03/20 07:32:31;;;;;;;1.55;0.20;;;1.60;99.90;;;;;;5131481;28;20179;-62
2021/03/20 07:35:13;;;;;;;1.60;0.20;;;1.70;99.90;;;;;;5130513;28;20216;-63
2021/03/20 07:37:39;;;;;;;1.60;0.40;;;1.70;99.90;;;;;;5112985;28;20175;-63
2021/03/20 07:40:18;;;;;;;1.60;0.20;;;1.80;99.90;;;;;;5130866;28;20202;-63
2021/03/20 07:42:46;;;;;;;1.70;0.30;;;1.80;99.80;;;;;;5124270;28;20206;-63
2021/03/20 07:45:17;;;;;;;1.58;0.20;;;1.90;99.20;;;;;;5129631;28;20171;-62
2021/03/20 07:48:04;;;;;;;1.58;0.20;;;1.80;99.50;;;;;;5124984;28;20180;-61
2021/03/20 07:50:43;;;;;;;1.60;0.20;;;1.90;99.60;;;;;;5113472;28;20675;-64
2021/03/20 07:53:20;;;;;;;1.60;0.20;;;2.00;99.30;;;;;;5122556;28;20184;-64
2021/03/20 07:56:06;;;;;;;1.60;0.20;;;2.00;98.00;;;;;;5122127;28;20190;-62
2021/03/20 07:58:42;;;;;;;1.58;0.20;;;2.10;97.60;;;;;;5123408;28;20179;-62
2021/03/20 08:01:26;;;;;;;1.52;0.20;;;2.10;96.50;;;;;;5118612;28;20259;-63
2021/03/20 08:03:56;;;;;;;1.85;0.43;;;2.10;95.70;;;;;;5111180;28;20202;-62
2021/03/20 08:06:30;;;;;;;1.70;0.40;;;2.10;94.60;;;;;;5118082;27;20168;-62
2021/03/20 08:09:08;;;;;;;1.90;0.73;;;2.10;93.50;;;;;;5115267;27;20192;-61
2021/03/20 08:11:35;;;;;;;1.93;0.50;;;2.10;93.50;;;;;;5126155;27;20427;-61
2021/03/20 08:14:23;;;;;;;1.58;0.20;;;2.10;93.40;;;;;;5121115;28;20495;-61
2021/03/20 08:16:49;;;;;;;1.60;0.30;;;2.10;92.90;;;;;;5119317;27;20185;-61
2021/03/20 08:19:17;;;;;;;1.50;0.20;;;2.20;92.20;;;;;;5120894;28;20234;-61
2021/03/20 08:21:49;;;;;;;1.60;0.20;;;2.20;92.50;;;;;;5130099;27;20582;-62
2021/03/20 08:24:46;;;;;;;1.60;0.30;;;2.30;92.00;;;;;;5128512;28;20191;-61
2021/03/20 08:27:35;;;;;;;3.25;0.60;;;2.30;91.70;;;;;;5131537;27;20167;-61
2021/03/20 08:30:21;;;;;;;1.55;0.20;;;2.30;90.70;;;;;;5133756;27;20203;-60
2021/03/20 08:33:25;;;;;;;1.58;0.20;;;2.40;89.40;;;;;;5121600;28;20184;-61
2021/03/20 08:36:29;;;;;;;3.88;1.27;;;2.40;86.90;;;;;;5127551;27;20179;-64
2021/03/20 08:39:19;;;;;;;1.55;0.20;;;2.50;86.90;;;;;;5121378;28;20175;-61
2021/03/20 08:41:57;;;;;;;1.52;0.20;;;2.50;86.90;;;;;;5120037;28;20229;-62
2021/03/20 08:44:46;;;;;;;1.58;0.30;;;2.50;87.20;;;;;;5118744;27;20255;-61
2021/03/20 08:47:17;;;;;;;1.70;0.30;;;2.50;87.30;;;;;;5118428;28;20180;-60
2021/03/20 08:50:07;;;;;;;1.55;0.20;;;2.50;86.90;;;;;;5118113;28;20230;-61
2021/03/20 08:52:45;;;;;;;1.60;0.30;;;2.60;87.20;;;;;;5113202;27;20214;-60
2021/03/20 08:55:37;;;;;;;1.55;0.20;;;2.70;87.10;;;;;;5117008;27;20195;-61
2021/03/20 08:58:36;;;;;;;1.50;0.20;;;2.80;83.60;;;;;;5120992;27;20864;-62
2021/03/20 09:01:07;;;;;;;1.55;0.20;;;2.80;83.70;;;;;;5111761;28;20195;-61
2021/03/20 09:03:39;;;;;;;1.73;0.50;;;2.80;82.80;;;;;;5112177;27;20290;-62
2021/03/20 09:06:21;;;;;;;1.60;0.35;;;2.90;83.20;;;;;;5120028;27;20175;-62
2021/03/20 09:08:51;;;;;;;1.63;0.35;;;3.00;82.90;;;;;;5117408;28;20217;-61
2021/03/20 09:11:23;;;;;;;1.58;0.20;;;3.10;83.00;;;;;;5118164;27;20211;-62
2021/03/20 09:13:54;;;;;;;1.52;0.20;;;3.10;83.00;;;;;;5127316;27;20176;-62
2021/03/20 09:16:51;;;;;;;1.52;0.20;;;3.20;82.80;;;;;;5124047;27;20744;-61
2021/03/20 09:19:22;;;;;;;1.52;0.20;;;3.30;83.30;;;;;;5110301;27;20266;-61
2021/03/20 09:21:49;;;;;;;1.50;0.20;;;3.30;79.50;;;;;;5109259;27;20174;-62
2021/03/20 09:24:19;;;;;;;1.50;0.20;;;3.20;80.50;;;;;;5118905;27;20194;-61
2021/03/20 09:26:50;;;;;;;1.50;0.20;;;3.20;79.30;;;;;;5111898;27;20222;-61
2021/03/20 09:29:26;;;;;;;1.52;0.20;;;3.20;75.40;;;;;;5114776;27;20748;-61
2021/03/20 09:31:54;;;;;;;1.52;0.20;;;3.20;74.20;;;;;;5115283;27;20533;-61
2021/03/20 09:34:34;;;;;;;1.52;0.20;;;3.20;71.60;;;;;;5107520;27;20195;-61
2021/03/20 09:37:20;;;;;;;2.78;0.55;;;3.30;73.40;;;;;;5115749;27;20242;-62
2021/03/20 09:39:49;;;;;;;1.55;0.20;;;3.30;71.50;;;;;;5094947;27;20223;-61
2021/03/20 09:42:26;;;;;;;1.50;0.20;;;3.40;70.70;;;;;;5112361;27;20278;-61
2021/03/20 09:45:11;;;;;;;1.58;0.20;;;3.40;69.80;;;;;;5112718;27;21251;-61
2021/03/20 09:47:51;;;;;;;1.55;0.20;;;3.50;65.80;;;;;;5113784;28;20179;-61
2021/03/20 09:50:19;;;;;;;1.60;0.20;;;3.60;66.00;;;;;;5115059;27;20214;-61
2021/03/20 09:53:05;;;;;;;1.52;0.20;;;3.60;64.60;;;;;;5112310;27;20238;-62
2021/03/20 09:55:31;;;;;;;1.58;0.20;;;3.60;63.80;;;;;;5114825;27;20738;-62
2021/03/20 09:58:02;;;;;;;1.53;0.20;;;3.70;61.00;;;;;;5122094;27;20178;-61
2021/03/20 10:00:57;;;;;;;1.52;0.20;;;3.70;61.10;;;;;;5115157;27;20522;-62
2021/03/20 10:03:41;;;;;;;1.58;0.20;;;3.70;60.60;;;;;;5088619;28;20913;-62
2021/03/20 10:06:15;;;;;;;1.58;0.20;;;3.60;59.90;;;;;;5112490;28;20187;-61
2021/03/20 10:08:44;;;;;;;1.50;0.20;;;3.60;59.70;;;;;;5113528;28;20221;-60
2021/03/20 10:11:36;;;;;;;1.55;0.20;;;3.70;58.40;;;;;;5107952;28;20525;-61
2021/03/20 10:14:21;;;;;;;1.58;0.20;;;3.80;57.60;;;;;;5107186;28;20211;-60
2021/03/20 10:17:17;;;;;;;1.60;0.40;;;3.80;57.90;;;;;;5114289;27;20198;-61
2021/03/20 10:19:55;;;;;;;1.58;0.20;;;3.90;59.00;;;;;;5110434;27;20207;-62
2021/03/20 10:22:29;;;;;;;1.55;0.20;;;4.00;60.00;;;;;;5109418;28;20179;-62
2021/03/20 10:24:55;;;;;;;1.52;0.20;;;4.00;58.70;;;;;;5118728;27;20189;-61
2021/03/20 10:27:27;;;;;;;1.65;0.45;;;4.10;58.60;;;;;;5115368;27;20206;-61
2021/03/20 10:29:53;;;;;;;3.15;0.28;;;4.10;58.00;;;;;;5112757;27;20207;-61
2021/03/20 10:32:23;;;;;;;1.60;0.30;;;4.10;57.70;;;;;;5110859;27;20183;-62
2021/03/20 10:34:54;;;;;;;1.58;0.20;;;4.10;56.50;;;;;;5107261;28;20219;-61
2021/03/20 10:37:28;;;;;;;2.28;1.30;;;4.10;56.60;;;;;;5107632;28;20184;-61
2021/03/20 10:40:10;;;;;;;1.50;0.20;;;4.10;56.30;;;;;;5108991;28;20195;-66
2021/03/20 10:42:39;;;;;;;1.55;0.20;;;4.20;54.80;;;;;;5104286;28;20183;-62
2021/03/20 10:45:16;;;;;;;1.58;0.30;;;4.20;54.40;;;;;;5104895;28;20195;-61
2021/03/20 10:47:43;;;;;;;1.52;0.30;;;4.30;54.40;;;;;;5112225;28;20190;-61
2021/03/20 10:50:27;;;;;;;1.50;0.20;;;4.30;53.10;;;;;;5108560;27;20215;-61
2021/03/20 10:53:01;;;;;;;1.50;0.20;;;4.20;53.10;;;;;;5101878;27;20530;-62
2021/03/20 10:55:38;;;;;;;1.50;0.20;;;4.20;53.60;;;;;;5109613;28;20171;-61
2021/03/20 10:58:07;;;;;;;1.50;0.20;;;4.20;52.90;;;;;;5105505;28;20194;-61
2021/03/20 11:00:45;;;;;;;1.50;0.20;;;4.20;52.90;;;;;;5105049;28;20593;-62
2021/03/20 11:03:36;;;;;;;1.50;0.30;;;4.30;53.40;;;;;;5100208;27;20329;-62
2021/03/20 11:06:17;;;;;;;1.50;0.20;;;4.40;53.90;;;;;;5109855;28;20183;-62
2021/03/20 11:08:44;;;;;;;1.50;0.20;;;4.30;53.70;;;;;;5107673;27;20175;-63
2021/03/20 11:11:13;;;;;;;1.65;0.55;;;4.30;52.80;;;;;;5102729;28;20215;-62
2021/03/20 11:13:42;;;;;;;1.50;0.20;;;4.30;53.30;;;;;;5107574;28;20267;-64
2021/03/20 11:16:18;;;;;;;1.50;0.20;;;4.40;53.30;;;;;;5106360;28;20187;-63
2021/03/20 11:19:14;;;;;;;1.95;0.45;;;4.50;52.70;;;;;;5107275;28;20188;-62
2021/03/20 11:21:46;;;;;;;1.45;0.20;;;4.40;52.80;;;;;;5109407;28;20179;-62
2021/03/20 11:24:37;;;;;;;32.38;7.20;;;4.40;52.80;;;;;;5106327;28;20203;-62
2021/03/20 11:27:22;;;;;;;1.48;0.20;;;4.60;52.10;;;;;;5109762;28;20206;-62
2021/03/20 11:29:53;;;;;;;1.50;0.30;;;4.60;51.80;;;;;;5095680;28;20206;-62
2021/03/20 11:32:40;;;;;;;1.50;0.30;;;4.60;49.90;;;;;;5110883;28;20214;-62
2021/03/20 11:35:21;;;;;;;1.50;0.30;;;4.60;50.20;;;;;;5109268;28;20190;-62
2021/03/20 11:37:47;;;;;;;1.90;0.35;;;4.60;49.00;;;;;;5105694;28;20566;-62
2021/03/20 11:40:25;;;;;;;1.45;0.30;;;4.70;50.30;;;;;;5115021;28;20203;-62
2021/03/20 11:42:54;;;;;;;1.50;0.20;;;4.90;50.70;;;;;;5108247;28;20220;-62
2021/03/20 11:45:25;;;;;;;1.45;0.20;;;5.00;51.80;;;;;;5108237;28;20516;-62
2021/03/20 11:47:54;;;;;;;1.48;0.20;;;5.10;51.30;;;;;;5114682;28;20198;-62
2021/03/20 11:50:27;;;;;;;1.48;0.20;;;5.10;49.40;;;;;;5112868;28;20260;-62
2021/03/20 11:53:01;;;;;;;1.50;0.20;;;5.00;49.90;;;;;;5110527;27;20546;-62
2021/03/20 11:55:34;;;;;;;1.48;0.20;;;5.00;50.30;;;;;;5103052;27;20183;-62
2021/03/20 11:58:02;;;;;;;1.42;0.20;;;4.90;49.70;;;;;;5116975;27;20191;-63
2021/03/20 12:00:42;;;;;;;1.50;0.30;;;5.00;49.50;;;;;;5093815;28;20207;-62
2021/03/20 12:03:30;;;;;;;1.50;0.30;;;5.10;50.40;;;;;;5113941;28;20213;-62
2021/03/20 12:06:14;;;;;;;1.50;0.20;;;5.10;49.90;;;;;;5102224;28;20599;-63
2021/03/20 12:08:44;;;;;;;1.60;0.50;;;5.10;49.40;;;;;;5109175;28;20546;-62
2021/03/20 12:11:16;;;;;;;1.60;0.40;;;5.20;50.20;;;;;;5114685;28;20199;-63
2021/03/20 12:13:51;;;;;;;1.60;0.50;;;5.30;50.40;;;;;;5111432;28;20186;-62
2021/03/20 12:16:28;;;;;;;1.50;0.20;;;5.30;51.60;;;;;;5107331;28;20282;-63
2021/03/20 12:19:14;;;;;;;1.50;0.30;;;5.30;50.00;;;;;;5111157;27;20186;-62
2021/03/20 12:22:00;;;;;;;1.40;0.20;;;5.30;50.80;;;;;;5112590;28;20183;-63
2021/03/20 12:24:46;;;;;;;1.42;0.20;;;5.30;51.00;;;;;;5112855;27;20662;-62
2021/03/20 12:27:22;;;;;;;1.42;0.20;;;5.40;51.10;;;;;;5111044;27;20542;-62
2021/03/20 12:29:50;;;;;;;1.50;0.30;;;5.50;51.10;;;;;;5118901;27;20191;-62
2021/03/20 12:32:33;;;;;;;1.92;0.77;;;5.60;50.00;;;;;;5112058;28;20538;-61
2021/03/20 12:35:17;;;;;;;1.45;0.28;;;5.60;50.30;;;;;;5113172;28;20191;-61
2021/03/20 12:37:47;;;;;;;1.70;0.40;;;5.70;51.00;;;;;;5110701;28;20662;-62
2021/03/20 12:40:15;;;;;;;1.42;0.20;;;5.80;51.90;;;;;;5113054;28;20195;-61
2021/03/20 12:42:40;;;;;;;1.45;0.20;;;5.90;51.40;;;;;;5110656;27;20215;-61
2021/03/20 12:45:08;;;;;;;1.50;0.40;;;6.00;50.80;;;;;;5112442;28;20213;-62
2021/03/20 12:47:34;;;;;;;1.50;0.30;;;6.10;50.00;;;;;;5114668;28;20184;-62
2021/03/20 12:49:59;;;;;;;1.43;0.20;;;6.00;49.30;;;;;;5103880;28;20211;-62
2021/03/20 12:52:28;;;;;;;1.43;0.20;;;6.10;49.90;;;;;;5114180;28;20186;-62
2021/03/20 12:54:57;;;;;;;2.90;1.45;;;6.20;49.50;;;;;;5112125;28;20286;-62
2021/03/20 12:57:29;;;;;;;1.40;0.20;;;6.10;47.70;;;;;;5107152;27;20188;-61
2021/03/20 12:59:59;;;;;;;1.45;0.20;;;6.20;48.60;;;;;;5114754;27;20203;-61
2021/03/20 13:02:24;;;;;;;1.40;0.20;;;6.30;47.80;;;;;;5108412;28;20179;-62
2021/03/20 13:04:51;;;;;;;1.50;0.37;;;6.40;48.30;;;;;;5105690;28;20689;-61
2021/03/20 13:07:18;;;;;;;1.45;0.20;;;6.50;49.00;;;;;;5111950;27;20179;-61
2021/03/20 13:09:44;;;;;;;1.42;0.20;;;6.50;47.70;;;;;;5111634;28;20578;-62
2021/03/20 13:12:11;;;;;;;2.25;0.40;;;6.50;48.60;;;;;;5109751;28;20524;-62
2021/03/20 13:14:38;;;;;;;1.80;0.43;;;6.60;48.00;;;;;;5113770;28;20221;-62
2021/03/20 13:17:05;;;;;;;1.50;0.47;;;6.70;47.90;;;;;;5109531;28;20437;-62
2021/03/20 13:19:31;;;;;;;1.50;0.20;;;6.70;48.00;;;;;;5109765;27;20204;-61
2021/03/20 13:21:57;;;;;;;1.50;0.40;;;6.70;47.60;;;;;;5105270;28;20562;-64
2021/03/20 13:24:23;;;;;;;1.43;0.20;;;6.50;46.70;;;;;;5114132;27;20464;-62
2021/03/20 13:26:48;;;;;;;1.50;0.30;;;6.50;48.70;;;;;;5109539;27;20434;-62
2021/03/20 13:29:15;;;;;;;1.50;0.40;;;6.50;49.50;;;;;;5111954;28;20413;-61
2021/03/20 13:31:40;;;;;;;1.40;0.20;;;6.60;48.80;;;;;;5109284;27;20182;-62
2021/03/20 13:34:06;;;;;;;1.90;0.57;;;6.70;47.30;;;;;;5112824;27;20205;-62
2021/03/20 13:36:32;;;;;;;1.50;0.30;;;6.70;47.10;;;;;;5094473;28;20179;-61
2021/03/20 13:38:58;;;;;;;1.45;0.22;;;6.60;47.20;;;;;;5105773;28;20270;-61
2021/03/20 13:41:23;;;;;;;1.43;0.20;;;6.60;46.60;;;;;;5117445;27;20231;-62